Time;durP1;ratioP1;P1;durP2;ratioP2;P2;SDS_P1;SDS_P2;PMS_P1;PMS_P2;Temp;Humidity;BMP_temperature;BMP_pressure;BME280_temperature;BME280_humidity;BME280_pressure;Samples;Min_cycle;Max_cycle;Signal;HPM_P1;HPM_P2
2022/08/20 00:00:26;;;;;;;12.55;7.12;;;;;;;24.59;100.00;98609.09;4323701;33;20149;-68
2022/08/20 00:03:08;;;;;;;15.68;7.90;;;;;;;24.56;100.00;98623.56;4325932;33;20256;-69
2022/08/20 00:05:38;;;;;;;17.35;8.35;;;;;;;24.55;100.00;98654.94;4302440;33;20101;-71
2022/08/20 00:08:06;;;;;;;16.85;8.63;;;;;;;24.34;100.00;98699.19;4302706;33;20531;-69
2022/08/20 00:10:35;;;;;;;17.25;9.90;;;;;;;24.11;100.00;98671.44;4313310;33;20044;-69
2022/08/20 00:13:03;;;;;;;14.50;8.32;;;;;;;24.46;100.00;98709.38;4298838;33;20058;-69
2022/08/20 00:15:33;;;;;;;19.70;7.95;;;;;;;24.28;100.00;98698.66;4278826;33;20228;-71
2022/08/20 00:18:00;;;;;;;17.37;7.18;;;;;;;24.25;100.00;98710.34;4293195;33;20465;-69
2022/08/20 00:20:36;;;;;;;17.65;7.97;;;;;;;24.32;100.00;98659.41;4290175;33;20041;-69
2022/08/20 00:23:03;;;;;;;19.48;7.60;;;;;;;24.17;100.00;98637.00;4280910;33;20042;-69
2022/08/20 00:25:29;;;;;;;11.93;7.78;;;;;;;24.23;100.00;98657.63;4268232;33;20064;-73
2022/08/20 00:27:57;;;;;;;14.85;8.13;;;;;;;24.10;100.00;98680.81;4274213;33;20049;-69
2022/08/20 00:30:25;;;;;;;12.70;7.28;;;;;;;24.47;100.00;98686.97;4281211;33;20476;-69
2022/08/20 00:32:55;;;;;;;17.20;7.50;;;;;;;24.58;100.00;98684.56;4286676;33;20063;-69
2022/08/20 00:35:26;;;;;;;16.73;8.25;;;;;;;24.49;100.00;98648.09;4290086;33;20033;-68
2022/08/20 00:37:53;;;;;;;24.02;9.40;;;;;;;24.30;100.00;98608.31;4295832;33;20040;-68
2022/08/20 00:40:26;;;;;;;20.62;8.27;;;;;;;24.75;100.00;98671.62;4282274;33;20037;-70
2022/08/20 00:42:56;;;;;;;14.70;7.37;;;;;;;24.54;100.00;98623.09;4292490;33;20045;-69
2022/08/20 00:45:25;;;;;;;9.98;6.68;;;;;;;24.82;100.00;98655.28;4270125;33;20052;-70
2022/08/20 00:47:54;;;;;;;16.42;7.37;;;;;;;24.85;100.00;98649.06;4265917;33;20073;-69
2022/08/20 00:50:28;;;;;;;14.55;8.25;;;;;;;24.87;100.00;98608.22;4265233;33;20045;-69
2022/08/20 00:52:54;;;;;;;15.27;7.78;;;;;;;24.65;100.00;98593.94;4267256;33;20065;-69
2022/08/20 00:55:24;;;;;;;17.50;8.95;;;;;;;24.58;100.00;98574.47;4294050;33;20372;-73
2022/08/20 00:57:55;;;;;;;25.73;9.02;;;;;;;24.69;100.00;98573.97;4295437;33;20048;-69
2022/08/20 01:00:30;;;;;;;22.83;10.35;;;;;;;24.35;100.00;98592.69;4279794;33;20183;-70
2022/08/20 01:02:59;;;;;;;24.02;9.88;;;;;;;24.14;100.00;98643.25;4279666;33;20227;-69
2022/08/20 01:05:27;;;;;;;20.77;10.20;;;;;;;24.10;100.00;98662.38;4279801;33;20086;-71
2022/08/20 01:07:54;;;;;;;20.45;9.88;;;;;;;24.19;100.00;98626.47;4279709;33;20077;-69
2022/08/20 01:10:26;;;;;;;25.62;10.82;;;;;;;24.16;100.00;98607.94;4282008;33;20037;-69
2022/08/20 01:12:56;;;;;;;21.67;10.95;;;;;;;24.38;100.00;98647.00;4265661;33;20463;-69
2022/08/20 01:15:29;;;;;;;28.83;10.80;;;;;;;24.56;100.00;98631.81;4277513;33;20041;-73
2022/08/20 01:17:59;;;;;;;21.92;10.60;;;;;;;24.40;100.00;98617.22;4279391;33;20089;-70
2022/08/20 01:20:29;;;;;;;17.52;9.55;;;;;;;24.12;100.00;98579.50;4280946;33;20045;-69
2022/08/20 01:26:11;;;;;;;18.33;11.10;;;;;;;24.62;100.00;98591.87;4279769;33;20092;-69
2022/08/20 01:28:42;;;;;;;21.67;12.43;;;;;;;24.28;100.00;98566.63;4279049;33;20519;-73
2022/08/20 01:31:21;;;;;;;21.37;11.45;;;;;;;24.40;100.00;98595.22;4301044;33;20053;-69
2022/08/20 01:33:48;;;;;;;;;;;;;;;24.40;100.00;98584.19;4315162;33;20107;-71
2022/08/20 01:36:17;;;;;;;19.95;11.63;;;;;;;24.47;100.00;98595.38;4323975;33;20270;-69
2022/08/20 01:38:44;;;;;;;21.62;11.90;;;;;;;24.38;100.00;98594.75;4331947;33;20043;-70
2022/08/20 01:41:42;;;;;;;25.15;12.00;;;;;;;24.16;100.00;98552.91;4345447;32;20066;-69
2022/08/20 01:44:12;;;;;;;27.83;12.30;;;;;;;24.09;100.00;98525.22;4353399;32;20048;-73
2022/08/20 01:46:40;;;;;;;18.12;10.88;;;;;;;24.46;100.00;98527.75;4368149;32;20069;-69
2022/08/20 01:49:25;;;;;;;22.55;12.05;;;;;;;24.21;100.00;98474.84;4368675;32;20051;-70
2022/08/20 01:51:54;;;;;;;19.92;11.73;;;;;;;24.15;100.00;98474.31;4324403;33;20066;-69
2022/08/20 01:54:21;;;;;;;34.40;11.85;;;;;;;24.32;100.00;98484.19;4322476;33;20029;-69
2022/08/20 01:56:54;;;;;;;32.33;12.73;;;;;;;24.35;100.00;98479.91;4324059;33;20094;-69
2022/08/20 01:59:22;;;;;;;28.65;12.65;;;;;;;24.56;100.00;98513.50;4293690;33;20169;-69
2022/08/20 02:01:48;;;;;;;25.45;12.43;;;;;;;24.44;100.00;98528.13;4293939;33;20041;-69
2022/08/20 02:04:16;;;;;;;24.65;12.55;;;;;;;24.60;100.00;98511.62;4299645;33;20048;-73
2022/08/20 02:06:53;;;;;;;23.62;12.25;;;;;;;24.83;100.00;98513.75;4279424;33;20905;-69
2022/08/20 02:09:20;;;;;;;29.15;13.15;;;;;;;24.75;100.00;98506.47;4280688;33;20055;-69
2022/08/20 02:11:47;;;;;;;22.75;13.68;;;;;;;24.60;100.00;98497.88;4282417;33;20079;-69
2022/08/20 02:14:15;;;;;;;24.58;12.98;;;;;;;24.38;100.00;98471.75;4283217;33;20038;-73
2022/08/20 02:16:45;;;;;;;19.35;12.90;;;;;;;24.55;100.00;98498.09;4286927;33;20056;-69
2022/08/20 02:19:16;;;;;;;29.75;13.80;;;;;;;24.37;100.00;98452.84;4280864;33;20466;-69
2022/08/20 02:21:47;;;;;;;21.30;12.00;;;;;;;24.17;100.00;98466.50;4279093;33;20037;-69
2022/08/20 02:24:14;;;;;;;24.55;13.82;;;;;;;24.17;100.00;98462.97;4279512;33;20863;-69
2022/08/20 02:26:40;;;;;;;22.25;13.75;;;;;;;24.30;100.00;98503.78;4280498;33;20171;-69
2022/08/20 02:29:09;;;;;;;26.42;13.43;;;;;;;23.97;100.00;98473.06;4285910;33;20041;-70
2022/08/20 02:31:36;;;;;;;24.63;12.13;;;;;;;23.88;100.00;98493.25;4321289;33;20040;-73
2022/08/20 02:34:05;;;;;;;27.87;13.25;;;;;;;23.94;100.00;98502.84;4292904;33;20143;-69
2022/08/20 02:36:32;;;;;;;25.77;12.37;;;;;;;23.86;100.00;98490.06;4294126;33;20045;-69
2022/08/20 02:38:58;;;;;;;21.98;13.43;;;;;;;23.96;100.00;98493.44;4364832;32;20538;-69
2022/08/20 02:41:25;;;;;;;22.60;14.32;;;;;;;23.94;100.00;98491.84;4360070;32;20097;-69
2022/08/20 02:43:51;;;;;;;19.23;13.05;;;;;;;24.05;100.00;98485.84;4350371;33;20028;-72
2022/08/20 02:46:18;;;;;;;26.85;12.48;;;;;;;23.81;100.00;98443.56;4352925;33;20058;-68
2022/08/20 02:48:44;;;;;;;27.83;13.62;;;;;;;24.12;100.00;98486.00;4353218;33;20079;-68
2022/08/20 02:51:11;;;;;;;20.42;12.05;;;;;;;23.89;100.00;98452.81;4352938;33;20054;-68
2022/08/20 02:53:40;;;;;;;22.37;13.13;;;;;;;23.96;100.00;98455.75;4323924;33;20040;-68
2022/08/20 02:56:09;;;;;;;22.62;12.00;;;;;;;23.90;100.00;98493.72;4316904;33;20388;-68
2022/08/20 02:58:37;;;;;;;19.73;11.07;;;;;;;23.52;100.00;98458.47;4297277;33;20049;-68
2022/08/20 03:01:06;;;;;;;23.00;11.43;;;;;;;23.38;100.00;98436.91;4311097;33;20130;-68
2022/08/20 03:03:33;;;;;;;19.00;11.45;;;;;;;23.39;100.00;98452.22;4287425;33;20071;-68
2022/08/20 03:06:09;;;;;;;18.15;11.10;;;;;;;23.70;100.00;98487.25;4307789;33;20129;-71
2022/08/20 03:08:36;;;;;;;23.70;10.40;;;;;;;23.68;100.00;98481.31;4310951;33;20074;-69
2022/08/20 03:11:04;;;;;;;20.45;11.80;;;;;;;23.75;100.00;98477.94;4322259;33;20087;-68
2022/08/20 03:13:31;;;;;;;22.30;11.55;;;;;;;23.69;100.00;98474.66;4323220;33;20056;-68
2022/08/20 03:16:00;;;;;;;22.00;11.05;;;;;;;23.72;100.00;98429.97;4321358;33;20363;-72
2022/08/20 03:18:31;;;;;;;14.38;11.32;;;;;;;23.88;100.00;98471.25;4296531;33;20102;-69
2022/08/20 03:20:58;;;;;;;24.05;10.60;;;;;;;23.87;100.00;98453.19;4296875;33;20176;-69
2022/08/20 03:23:25;;;;;;;21.00;11.57;;;;;;;23.52;100.00;98440.03;4295745;33;20068;-69
2022/08/20 03:25:51;;;;;;;19.50;11.43;;;;;;;23.41;100.00;98458.19;4328676;33;20036;-69
2022/08/20 03:28:18;;;;;;;14.52;10.77;;;;;;;23.64;100.00;98477.66;4338075;33;20070;-69
2022/08/20 03:30:45;;;;;;;23.62;11.60;;;;;;;23.69;100.00;98479.34;4325676;33;20520;-70
2022/08/20 03:33:11;;;;;;;25.52;11.30;;;;;;;23.47;100.00;98473.25;4333809;33;20437;-69
2022/08/20 03:35:38;;;;;;;23.98;12.02;;;;;;;23.58;100.00;98468.87;4348516;33;20376;-69
2022/08/20 03:38:10;;;;;;;20.90;11.38;;;;;;;22.99;100.00;98439.25;4354008;32;20063;-70
2022/08/20 03:40:37;;;;;;;21.42;10.80;;;;;;;23.28;100.00;98460.16;4355833;32;20078;-69
2022/08/20 03:43:08;;;;;;;18.08;11.75;;;;;;;22.79;100.00;98443.78;4355516;32;20091;-70
2022/08/20 03:45:37;;;;;;;19.48;10.35;;;;;;;23.34;100.00;98497.22;4338952;33;20071;-69
2022/08/20 03:48:09;;;;;;;15.50;10.90;;;;;;;23.16;100.00;98471.19;4339453;33;20083;-73
2022/08/20 03:50:36;;;;;;;20.27;11.10;;;;;;;23.20;100.00;98505.84;4329150;33;20098;-69
2022/08/20 03:53:02;;;;;;;22.05;11.80;;;;;;;23.11;100.00;98461.22;4323234;33;20041;-71
2022/08/20 03:55:31;;;;;;;19.87;10.98;;;;;;;23.26;100.00;98500.88;4271386;33;20038;-70
2022/08/20 03:58:01;;;;;;;20.05;11.50;;;;;;;23.21;100.00;98499.22;4268344;33;20420;-69
2022/08/20 04:00:47;;;;;;;18.40;9.80;;;;;;;23.07;100.00;98465.81;4269064;33;20050;-71
2022/08/20 04:03:15;;;;;;;26.45;10.05;;;;;;;23.51;100.00;98493.38;4282446;33;20085;-70
2022/08/20 04:05:42;;;;;;;30.30;10.52;;;;;;;23.42;100.00;98481.72;4291835;33;20095;-68
2022/08/20 04:08:14;;;;;;;16.55;10.75;;;;;;;23.32;100.00;98487.72;4295594;33;20072;-70
2022/08/20 04:10:43;;;;;;;22.15;9.43;;;;;;;23.27;100.00;98472.28;4285282;33;20057;-69
2022/08/20 04:13:09;;;;;;;14.05;9.27;;;;;;;23.24;100.00;98502.41;4266455;33;20034;-82
2022/08/20 04:15:36;;;;;;;27.25;9.10;;;;;;;23.37;100.00;98463.56;4272598;33;20037;-70
2022/08/20 04:18:11;;;;;;;16.92;8.88;;;;;;;23.73;100.00;98483.00;4288191;33;20049;-73
2022/08/20 04:20:40;;;;;;;17.05;10.60;;;;;;;23.52;100.00;98485.97;4289852;33;20050;-70
2022/08/20 04:23:07;;;;;;;17.35;10.05;;;;;;;23.80;100.00;98491.44;4295555;33;20029;-70
2022/08/20 04:25:39;;;;;;;21.67;9.93;;;;;;;23.48;100.00;98455.63;4300452;33;20045;-70
2022/08/20 04:28:10;;;;;;;17.52;9.75;;;;;;;23.65;100.00;98468.25;4353072;32;20024;-73
2022/08/20 04:30:37;;;;;;;14.50;9.10;;;;;;;23.87;100.00;98497.16;4352492;32;20482;-70
2022/08/20 04:33:04;;;;;;;20.00;10.32;;;;;;;23.71;100.00;98477.84;4330628;33;20035;-68
2022/08/20 04:35:33;;;;;;;23.10;9.80;;;;;;;23.61;100.00;98516.03;4311363;33;20025;-70
2022/08/20 04:38:05;;;;;;;15.13;10.35;;;;;;;23.40;100.00;98484.03;4309568;33;20067;-71
2022/08/20 04:43:42;;;;;;;23.15;11.52;;;;;;;24.09;100.00;98505.97;4295123;33;20074;-72
2022/08/20 04:46:13;;;;;;;22.45;10.70;;;;;;;23.83;100.00;98471.50;4307644;33;20092;-71
2022/08/20 04:48:43;;;;;;;22.55;11.57;;;;;;;23.78;100.00;98477.25;4308549;33;20171;-70
2022/08/20 04:51:13;;;;;;;16.48;9.88;;;;;;;23.85;100.00;98510.44;4308939;33;20401;-74
2022/08/20 04:53:41;;;;;;;20.67;10.38;;;;;;;24.02;100.00;98509.34;4305409;33;20113;-71
2022/08/20 04:56:08;;;;;;;17.42;9.73;;;;;;;23.49;100.00;98457.22;4300867;33;20452;-71
2022/08/20 04:58:37;;;;;;;12.30;10.10;;;;;;;23.38;100.00;98486.34;4308523;33;20090;-74
2022/08/20 05:01:07;;;;;;;19.83;9.90;;;;;;;23.50;100.00;98516.53;4292311;33;20040;-73
2022/08/20 05:03:34;;;;;;;16.58;8.75;;;;;;;23.48;100.00;98524.28;4300206;33;20267;-70
2022/08/20 05:06:00;;;;;;;17.85;8.40;;;;;;;23.18;100.00;98488.91;4314516;33;20134;-70
2022/08/20 05:08:28;;;;;;;18.00;8.27;;;;;;;23.33;100.00;98511.31;4328468;33;20062;-68
2022/08/20 05:10:57;;;;;;;13.82;7.82;;;;;;;22.93;100.00;98407.69;4330441;33;20062;-68
2022/08/20 05:13:25;;;;;;;9.15;7.53;;;;;;;23.79;100.00;98511.84;4329761;33;20036;-67
2022/08/20 05:15:54;;;;;;;15.63;7.90;;;;;;;23.87;100.00;98512.84;4329377;33;20496;-68
2022/08/20 05:18:25;;;;;;;13.50;8.32;;;;;;;23.65;100.00;98478.47;4329674;33;20379;-69
2022/08/20 05:20:53;;;;;;;13.30;7.47;;;;;;;23.99;100.00;98515.53;4327132;33;20062;-69
2022/08/20 05:23:20;;;;;;;13.57;8.80;;;;;;;23.81;100.00;98493.03;4327304;33;20077;-70
2022/08/20 05:25:51;;;;;;;12.35;7.10;;;;;;;23.84;100.00;98481.38;4330909;33;20056;-68
2022/08/20 05:28:23;;;;;;;22.30;7.93;;;;;;;24.14;100.00;98516.72;4308929;33;20062;-67
2022/08/20 05:30:51;;;;;;;16.52;7.62;;;;;;;24.11;100.00;98511.94;4321176;33;20068;-67
2022/08/20 05:33:22;;;;;;;9.40;7.05;;;;;;;24.12;100.00;98513.50;4315898;33;20127;-68
2022/08/20 05:35:51;;;;;;;20.52;6.97;;;;;;;24.11;100.00;98507.22;4331051;33;21024;-68
2022/08/20 05:38:22;;;;;;;15.80;7.00;;;;;;;24.22;100.00;98504.75;4328603;33;20044;-68
2022/08/20 05:40:49;;;;;;;;;;;;;;;24.21;100.00;98505.91;4328481;33;20065;-68
2022/08/20 05:43:18;;;;;;;15.88;7.30;;;;;;;24.16;100.00;98503.41;4328551;33;19951;-69
2022/08/20 05:45:51;;;;;;;14.27;6.90;;;;;;;23.97;100.00;98462.84;4329389;33;20072;-70
2022/08/20 05:48:24;;;;;;;14.20;7.40;;;;;;;24.04;100.00;98452.03;4306420;33;20033;-68
2022/08/20 05:50:54;;;;;;;10.52;7.22;;;;;;;24.38;100.00;98477.25;4306566;33;20121;-74
2022/08/20 05:53:24;;;;;;;14.35;6.87;;;;;;;24.33;100.00;98469.25;4307145;33;20049;-68
2022/08/20 05:55:55;;;;;;;10.65;7.15;;;;;;;24.42;100.00;98471.84;4306468;33;20059;-67
2022/08/20 05:58:28;;;;;;;9.30;6.50;;;;;;;24.40;100.00;98474.16;4310803;33;20504;-68
2022/08/20 06:00:59;;;;;;;15.93;8.02;;;;;;;24.51;100.00;98474.38;4334790;33;20052;-68
2022/08/20 06:06:14;;;;;;;16.08;7.95;;;;;;;24.70;100.00;98480.03;4350060;32;20074;-73
2022/08/20 06:08:43;;;;;;;14.20;6.65;;;;;;;24.65;100.00;98470.06;4350840;32;20118;-69
2022/08/20 06:11:12;;;;;;;15.02;7.43;;;;;;;24.74;100.00;98469.09;4320538;33;20067;-68
2022/08/20 06:13:39;;;;;;;10.25;6.72;;;;;;;24.80;100.00;98453.87;4320091;33;20033;-68
2022/08/20 06:16:12;;;;;;;12.57;6.60;;;;;;;24.73;100.00;98423.44;4319500;33;20463;-74
2022/08/20 06:18:46;;;;;;;18.50;8.57;;;;;;;25.05;100.00;98473.72;4331112;32;20106;-69
2022/08/20 06:21:14;;;;;;;12.98;6.80;;;;;;;24.96;100.00;98467.63;4366121;32;20055;-69
2022/08/20 06:23:41;;;;;;;14.05;6.35;;;;;;;24.82;100.00;98473.59;4365540;32;20078;-69
2022/08/20 06:26:08;;;;;;;9.32;7.20;;;;;;;24.93;100.00;98485.63;4365095;32;20051;-68
2022/08/20 06:28:35;;;;;;;12.68;7.00;;;;;;;25.04;100.00;98474.09;4363839;32;20096;-68
2022/08/20 06:31:02;;;;;;;16.95;6.50;;;;;;;24.91;100.00;98440.38;4364868;32;20053;-68
2022/08/20 06:33:32;;;;;;;10.82;6.62;;;;;;;25.01;100.00;98432.31;4350776;32;20061;-68
2022/08/20 06:36:01;;;;;;;14.07;7.53;;;;;;;25.45;100.00;98471.81;4349293;32;20407;-68
2022/08/20 06:38:27;;;;;;;14.85;6.47;;;;;;;25.48;100.00;98466.38;4349988;32;20031;-70
2022/08/20 06:40:55;;;;;;;13.82;6.93;;;;;;;25.51;100.00;98470.34;4350076;33;20063;-68
2022/08/20 06:43:26;;;;;;;11.82;6.25;;;;;;;25.56;100.00;98467.31;4350873;33;20479;-68
2022/08/20 06:45:56;;;;;;;15.25;7.07;;;;;;;25.50;100.00;98466.03;4349506;33;20080;-68
2022/08/20 06:48:23;;;;;;;18.40;5.97;;;;;;;25.57;100.00;98474.41;4350707;32;20077;-69
2022/08/20 06:50:52;;;;;;;15.57;6.28;;;;;;;25.62;100.00;98476.87;4321476;33;20119;-67
2022/08/20 06:53:20;;;;;;;12.77;6.22;;;;;;;25.62;100.00;98471.38;4320204;33;20040;-67
2022/08/20 06:55:54;;;;;;;15.68;6.35;;;;;;;25.60;100.00;98478.44;4313479;33;20108;-68
2022/08/20 06:58:24;;;;;;;14.25;6.40;;;;;;;25.55;100.00;98465.72;4313653;33;20053;-67
2022/08/20 07:00:54;;;;;;;11.82;6.12;;;;;;;25.71;100.00;98480.22;4315724;33;20099;-69
2022/08/20 07:03:20;;;;;;;12.88;5.95;;;;;;;25.78;100.00;98481.53;4315797;33;20105;-69
2022/08/20 07:05:52;;;;;;;16.95;6.25;;;;;;;25.42;100.00;98444.97;4309036;33;20033;-67
2022/08/20 07:08:23;;;;;;;10.10;7.65;;;;;;;25.71;100.00;98490.47;4306318;33;20071;-67
2022/08/20 07:10:53;;;;;;;9.27;6.75;;;;;;;25.87;100.00;98479.34;4315626;33;20197;-67
2022/08/20 07:13:24;;;;;;;16.03;6.00;;;;;;;26.01;100.00;98479.63;4331271;33;20052;-67
2022/08/20 07:15:50;;;;;;;16.77;6.70;;;;;;;26.16;100.00;98482.63;4336224;33;20149;-68
2022/08/20 07:18:17;;;;;;;10.63;6.20;;;;;;;26.32;100.00;98480.53;4325950;33;20070;-68
2022/08/20 07:20:45;;;;;;;19.48;6.55;;;;;;;26.35;100.00;98479.81;4333813;32;20106;-67
2022/08/20 07:23:13;;;;;;;14.95;6.57;;;;;;;26.31;100.00;98478.97;4350603;32;20062;-71
2022/08/20 07:25:42;;;;;;;12.60;6.68;;;;;;;25.81;100.00;98450.47;4353569;32;20086;-68
2022/08/20 07:28:18;;;;;;;11.05;5.80;;;;;;;26.17;100.00;98503.56;4366348;32;20436;-68
2022/08/20 07:33:40;;;;;;;16.10;7.00;;;;;;;25.90;100.00;98503.44;4361008;32;20156;-71
2022/08/20 07:36:07;;;;;;;12.55;5.22;;;;;;;26.13;100.00;98510.97;4364211;32;20125;-67
2022/08/20 07:38:34;;;;;;;14.87;7.18;;;;;;;26.22;100.00;98486.69;4369053;32;20035;-67
2022/08/20 07:41:08;;;;;;;13.20;6.18;;;;;;;26.42;100.00;98518.59;4367502;32;20366;-67
2022/08/20 07:43:38;;;;;;;12.57;6.35;;;;;;;26.75;100.00;98514.41;4367709;32;20059;-73
2022/08/20 07:46:08;;;;;;;8.77;6.32;;;;;;;27.11;100.00;98514.94;4353558;32;20107;-67
2022/08/20 07:48:38;;;;;;;18.50;6.05;;;;;;;26.59;100.00;98510.97;4354570;32;20137;-67
2022/08/20 07:51:09;;;;;;;11.85;6.45;;;;;;;26.58;100.00;98512.13;4347126;32;20075;-71
2022/08/20 07:53:40;;;;;;;22.23;7.95;;;;;;;26.65;100.00;98512.28;4330474;33;20082;-71
2022/08/20 07:56:10;;;;;;;11.65;6.93;;;;;;;26.62;100.00;98474.34;4333994;33;20096;-67
2022/08/20 07:58:40;;;;;;;15.48;7.82;;;;;;;27.24;100.00;98506.44;4340345;32;21731;-67
2022/08/20 08:01:07;;;;;;;14.97;8.17;;;;;;;27.48;100.00;98497.69;4335794;32;20099;-67
2022/08/20 08:03:33;;;;;;;15.30;8.43;;;;;;;27.60;100.00;98502.16;4354752;32;20039;-69
2022/08/20 08:06:00;;;;;;;11.02;6.65;;;;;;;27.23;100.00;98432.97;4350938;32;20102;-67
2022/08/20 08:08:27;;;;;;;14.85;8.32;;;;;;;27.35;100.00;98468.72;4348990;32;20087;-66
2022/08/20 08:10:58;;;;;;;14.50;7.10;;;;;;;27.78;100.00;98502.41;4348323;32;20074;-69
2022/08/20 08:13:31;;;;;;;29.12;8.23;;;;;;;27.10;100.00;98474.66;4318120;33;20082;-67
2022/08/20 08:16:02;;;;;;;15.15;7.25;;;;;;;27.56;100.00;98486.72;4317446;33;20347;-70
2022/08/20 08:18:36;;;;;;;14.33;9.00;;;;;;;27.83;100.00;98504.81;4323087;33;20056;-68
2022/08/20 08:21:06;;;;;;;10.48;5.75;;;;;;;27.89;100.00;98508.03;4321796;33;20040;-70
2022/08/20 08:23:33;;;;;;;10.90;6.37;;;;;;;28.02;100.00;98495.56;4325441;33;20057;-74
2022/08/20 08:26:00;;;;;;;12.60;5.57;;;;;;;27.87;100.00;98483.53;4351930;32;20446;-68
2022/08/20 08:28:29;;;;;;;11.73;6.47;;;;;;;28.01;100.00;98490.41;4347283;32;20064;-67
2022/08/20 08:30:56;;;;;;;12.00;5.70;;;;;;;28.07;100.00;98489.69;4353196;32;20070;-68
2022/08/20 08:33:32;;;;;;;14.52;5.53;;;;;;;28.02;100.00;98480.94;4367833;32;20051;-67
2022/08/20 08:36:12;;;;;;;11.07;5.70;;;;;;;28.15;100.00;98490.53;4346547;32;20048;-69
2022/08/20 08:38:41;;;;;;;20.08;6.75;;;;;;;28.11;100.00;98495.25;4343683;32;20035;-67
2022/08/20 08:41:23;;;;;;;12.57;5.97;;;;;;;27.83;100.00;98499.28;4339115;32;20100;-68
2022/08/20 08:43:52;;;;;;;13.95;7.65;;;;;;;27.85;100.00;98466.50;4331491;32;20047;-68
2022/08/20 08:46:24;;;;;;;11.77;7.32;;;;;;;28.12;100.00;98505.16;4349174;32;20400;-68
2022/08/20 08:48:53;;;;;;;;;;;;;;;27.66;100.00;98459.19;4367337;32;20402;-69
2022/08/20 08:51:39;;;;;;;14.23;6.43;;;;;;;27.81;100.00;98490.56;4368837;32;19964;-67
2022/08/20 08:54:07;;;;;;;9.88;6.20;;;;;;;27.89;100.00;98485.88;4368751;32;20493;-67
2022/08/20 08:56:34;;;;;;;10.55;6.57;;;;;;;27.63;100.00;98459.16;4367004;32;20157;-75
2022/08/20 08:59:07;;;;;;;12.80;5.80;;;;;;;27.82;100.00;98489.38;4367163;32;20057;-69
2022/08/20 09:01:49;;;;;;;10.00;5.93;;;;;;;27.85;100.00;98496.12;4366350;32;20035;-68
2022/08/20 09:04:20;;;;;;;16.98;8.63;;;;;;;27.35;100.00;98497.13;4352420;32;20087;-74
2022/08/20 09:06:51;;;;;;;13.95;6.07;;;;;;;27.45;100.00;98468.03;4363942;32;20048;-68
2022/08/20 09:09:35;;;;;;;10.27;6.22;;;;;;;27.87;100.00;98505.66;4370275;32;20409;-68
2022/08/20 09:12:09;;;;;;;21.37;8.02;;;;;;;27.76;100.00;98482.59;4374896;32;20056;-74
2022/08/20 09:14:36;;;;;;;13.90;6.70;;;;;;;27.94;100.00;98482.00;4382059;32;20426;-68
2022/08/20 09:17:03;;;;;;;11.05;6.68;;;;;;;28.20;100.00;98498.50;4363247;32;20079;-68
2022/08/20 09:19:30;;;;;;;24.17;9.18;;;;;;;28.42;100.00;98513.34;4377164;32;20410;-67
2022/08/20 09:21:57;;;;;;;13.95;6.45;;;;;;;28.67;100.00;98506.44;4384146;32;20139;-73
2022/08/20 09:24:24;;;;;;;16.52;6.97;;;;;;;28.65;100.00;98467.25;4384986;32;20055;-68
2022/08/20 09:26:50;;;;;;;14.82;6.43;;;;;;;28.74;100.00;98512.81;4385754;32;20043;-68
2022/08/20 09:29:16;;;;;;;8.10;5.45;;;;;;;28.60;100.00;98513.50;4385323;32;20057;-69
2022/08/20 09:31:43;;;;;;;12.20;5.85;;;;;;;28.30;100.00;98526.66;4385456;32;20109;-68
2022/08/20 09:34:09;;;;;;;16.50;6.07;;;;;;;28.00;100.00;98519.25;4383337;32;20107;-69
2022/08/20 09:36:36;;;;;;;11.12;5.85;;;;;;;28.08;100.00;98526.44;4384756;32;20108;-67
2022/08/20 09:39:02;;;;;;;13.60;5.62;;;;;;;27.83;100.00;98526.94;4384295;32;20412;-68
2022/08/20 09:41:31;;;;;;;12.27;5.55;;;;;;;28.13;100.00;98534.41;4391094;32;20064;-67
2022/08/20 09:44:04;;;;;;;8.95;5.15;;;;;;;28.22;100.00;98531.31;4385560;32;20124;-74
2022/08/20 09:46:32;;;;;;;9.48;5.07;;;;;;;27.94;100.00;98504.97;4376282;32;20069;-67
2022/08/20 09:48:59;;;;;;;13.43;5.10;;;;;;;27.82;100.00;98528.09;4370007;32;20043;-75
2022/08/20 09:51:26;;;;;;;14.23;8.05;;;;;;;27.40;100.00;98487.72;4368957;32;20082;-70
2022/08/20 09:53:55;;;;;;;10.27;5.97;;;;;;;27.70;100.00;98511.78;4369097;32;20077;-68
2022/08/20 09:56:23;;;;;;;18.98;6.00;;;;;;;27.60;100.00;98537.31;4365600;32;20092;-69
2022/08/20 09:58:54;;;;;;;14.95;5.80;;;;;;;27.87;100.00;98544.38;4363273;32;20105;-68
2022/08/20 10:01:21;;;;;;;8.60;5.80;;;;;;;27.60;100.00;98540.09;4362689;32;20061;-70
2022/08/20 10:03:51;;;;;;;10.35;5.75;;;;;;;27.65;100.00;98542.50;4379041;32;20054;-70
2022/08/20 10:06:24;;;;;;;12.52;5.53;;;;;;;27.44;100.00;98488.53;4379052;32;20165;-68
2022/08/20 10:08:55;;;;;;;17.65;6.40;;;;;;;27.52;100.00;98539.19;4376595;32;20077;-66
2022/08/20 10:11:22;;;;;;;11.12;5.65;;;;;;;27.31;100.00;98539.72;4353322;32;20095;-66
2022/08/20 10:13:51;;;;;;;14.63;6.07;;;;;;;27.25;100.00;98530.13;4353107;32;20058;-66
2022/08/20 10:16:19;;;;;;;26.42;7.43;;;;;;;27.12;100.00;98538.63;4354170;32;20040;-67
2022/08/20 10:18:48;;;;;;;13.30;6.28;;;;;;;26.83;100.00;98444.28;4364593;32;20418;-67
2022/08/20 10:21:17;;;;;;;11.18;6.00;;;;;;;26.99;100.00;98493.84;4359200;32;20039;-67
2022/08/20 10:23:45;;;;;;;13.68;6.32;;;;;;;27.25;100.00;98525.41;4353630;32;20036;-67
2022/08/20 10:26:17;;;;;;;12.10;6.75;;;;;;;27.01;100.00;98521.09;4351861;32;20047;-67
2022/08/20 10:28:47;;;;;;;15.63;6.90;;;;;;;26.79;100.00;98518.03;4351636;32;20052;-68
2022/08/20 10:31:13;;;;;;;16.58;7.90;;;;;;;26.94;100.00;98494.16;4364827;32;20846;-69
2022/08/20 10:33:41;;;;;;;16.35;7.60;;;;;;;27.18;100.00;98498.44;4368078;32;20386;-68
2022/08/20 10:36:14;;;;;;;13.75;8.05;;;;;;;27.26;100.00;98490.28;4357905;32;20085;-68
2022/08/20 10:38:44;;;;;;;16.77;7.25;;;;;;;27.35;100.00;98491.59;4355158;32;20092;-68
2022/08/20 10:41:21;;;;;;;16.35;7.93;;;;;;;27.36;100.00;98470.28;4358503;32;20082;-67
2022/08/20 10:43:51;;;;;;;16.33;8.13;;;;;;;27.58;100.00;98509.25;4356717;32;20109;-68
2022/08/20 10:46:19;;;;;;;15.43;8.40;;;;;;;27.19;100.00;98527.69;4357914;32;20104;-71
2022/08/20 10:48:46;;;;;;;18.75;8.38;;;;;;;27.21;100.00;98519.03;4327996;33;20102;-69
2022/08/20 10:51:13;;;;;;;14.70;8.85;;;;;;;26.99;100.00;98528.97;4328487;33;20049;-69
2022/08/20 10:53:39;;;;;;;18.20;10.65;;;;;;;26.85;100.00;98518.50;4301698;33;20044;-67
2022/08/20 10:56:06;;;;;;;22.08;8.93;;;;;;;26.86;100.00;98531.13;4313525;33;20029;-67
2022/08/20 10:58:32;;;;;;;16.60;8.38;;;;;;;26.62;100.00;98537.84;4311754;33;20116;-70
2022/08/20 11:00:58;;;;;;;13.80;8.50;;;;;;;26.22;100.00;98514.28;4314673;33;20799;-68
2022/08/20 11:03:25;;;;;;;14.68;9.38;;;;;;;26.63;100.00;98500.78;4307283;33;20300;-69
2022/08/20 11:05:51;;;;;;;23.92;9.68;;;;;;;26.81;100.00;98510.16;4291868;33;20490;-68
2022/08/20 11:08:18;;;;;;;18.75;9.98;;;;;;;26.80;100.00;98521.56;4293074;33;20042;-72
2022/08/20 11:10:44;;;;;;;15.15;7.25;;;;;;;26.44;100.00;98510.72;4292094;33;20055;-68
2022/08/20 11:13:11;;;;;;;12.73;7.62;;;;;;;26.36;100.00;98520.06;4278756;33;20122;-68
2022/08/20 11:15:43;;;;;;;14.63;7.07;;;;;;;26.32;100.00;98538.50;4286750;33;20034;-67
2022/08/20 11:18:15;;;;;;;11.00;6.12;;;;;;;26.32;100.00;98530.22;4286442;33;20045;-68
2022/08/20 11:20:51;;;;;;;17.65;5.30;;;;;;;26.52;100.00;98521.87;4309778;33;20104;-67
2022/08/20 11:23:17;;;;;;;14.95;5.22;;;;;;;26.50;100.00;98480.03;4308405;33;20048;-67
2022/08/20 11:25:48;;;;;;;16.75;5.70;;;;;;;26.78;100.00;98519.19;4345181;32;20031;-68
2022/08/20 11:28:18;;;;;;;17.42;5.62;;;;;;;26.82;100.00;98509.00;4351535;32;20084;-69
2022/08/20 11:30:49;;;;;;;20.62;5.68;;;;;;;27.00;100.00;98519.53;4331157;33;20048;-67
2022/08/20 11:33:21;;;;;;;20.70;5.93;;;;;;;27.07;100.00;98519.59;4324802;33;20037;-70
2022/08/20 11:35:57;;;;;;;18.00;4.95;;;;;;;27.07;100.00;98516.84;4327064;33;20091;-74
2022/08/20 11:38:25;;;;;;;8.68;4.50;;;;;;;26.59;100.00;98497.16;4301189;33;20058;-67